sensor_id;sensor_type;location;lat;lon;timestamp;temperature;humidity
6468;DHT22;3267;48.794;9.928;2023-01-13T05:01:13;13.80;99.90
6468;DHT22;3267;48.794;9.928;2023-01-13T05:03:39;13.80;99.90
6468;DHT22;3267;48.794;9.928;2023-01-13T05:06:05;13.50;99.90
6468;DHT22;3267;48.794;9.928;2023-01-13T05:08:31;13.90;99.90
6468;DHT22;3267;48.794;9.928;2023-01-13T05:10:59;13.60;99.90
6468;DHT22;3267;48.794;9.928;2023-01-13T05:13:25;13.40;99.90
6468;DHT22;3267;48.794;9.928;2023-01-13T05:16:11;15.80;99.90
6468;DHT22;3267;48.794;9.928;2023-01-13T05:18:55;13.30;99.90
6468;DHT22;3267;48.794;9.928;2023-01-13T05:21:21;13.50;99.90
6468;DHT22;3267;48.794;9.928;2023-01-13T05:24:08;13.90;99.90
6468;DHT22;3267;48.794;9.928;2023-01-13T05:26:54;13.80;99.90
6468;DHT22;3267;48.794;9.928;2023-01-13T05:29:20;13.80;99.90
6468;DHT22;3267;48.794;9.928;2023-01-13T05:31:46;13.60;99.90
6468;DHT22;3267;48.794;9.928;2023-01-13T05:34:12;13.50;99.90
6468;DHT22;3267;48.794;9.928;2023-01-13T05:36:37;15.40;99.90
6468;DHT22;3267;48.794;9.928;2023-01-13T05:39:03;16.20;99.90
6468;DHT22;3267;48.794;9.928;2023-01-13T05:41:29;13.70;99.90
6468;DHT22;3267;48.794;9.928;2023-01-13T05:44:14;13.80;99.90
6468;DHT22;3267;48.794;9.928;2023-01-13T05:46:40;13.90;99.90
6468;DHT22;3267;48.794;9.928;2023-01-13T05:49:06;13.70;99.90
6468;DHT22;3267;48.794;9.928;2023-01-13T05:51:32;13.30;99.90
6468;DHT22;3267;48.794;9.928;2023-01-13T05:53:58;13.30;99.90
6468;DHT22;3267;48.794;9.928;2023-01-13T05:56:23;13.30;99.90
6468;DHT22;3267;48.794;9.928;2023-01-13T05:58:49;13.30;99.90
6468;DHT22;3267;48.794;9.928;2023-01-13T06:01:15;13.60;99.90
6468;DHT22;3267;48.794;9.928;2023-01-13T06:03:41;13.60;99.90
6468;DHT22;3267;48.794;9.928;2023-01-13T06:06:07;13.40;99.90
6468;DHT22;3267;48.794;9.928;2023-01-13T06:08:33;13.80;99.90
6468;DHT22;3267;48.794;9.928;2023-01-13T06:10:59;13.90;99.90
6468;DHT22;3267;48.794;9.928;2023-01-13T06:13:25;14.00;99.90
6468;DHT22;3267;48.794;9.928;2023-01-13T06:15:54;14.00;99.90
6468;DHT22;3267;48.794;9.928;2023-01-13T06:18:21;13.60;99.90
6468;DHT22;3267;48.794;9.928;2023-01-13T06:20:46;16.20;99.90
6468;DHT22;3267;48.794;9.928;2023-01-13T06:23:12;13.50;99.90
6468;DHT22;3267;48.794;9.928;2023-01-13T06:25:49;13.30;99.90
6468;DHT22;3267;48.794;9.928;2023-01-13T06:28:16;13.40;99.90
6468;DHT22;3267;48.794;9.928;2023-01-13T06:30:47;13.10;99.90
6468;DHT22;3267;48.794;9.928;2023-01-13T06:33:25;13.00;99.90
6468;DHT22;3267;48.794;9.928;2023-01-13T06:35:56;13.00;99.90
6468;DHT22;3267;48.794;9.928;2023-01-13T06:38:25;13.10;99.90
6468;DHT22;3267;48.794;9.928;2023-01-13T06:40:52;12.90;99.90
6468;DHT22;3267;48.794;9.928;2023-01-13T06:43:18;13.00;99.90
6468;DHT22;3267;48.794;9.928;2023-01-13T06:45:50;15.20;99.90
6468;DHT22;3267;48.794;9.928;2023-01-13T06:48:23;13.20;99.90
6468;DHT22;3267;48.794;9.928;2023-01-13T06:50:50;16.10;99.90
6468;DHT22;3267;48.794;9.928;2023-01-13T06:53:16;13.00;99.90
6468;DHT22;3267;48.794;9.928;2023-01-13T06:55:42;12.80;99.90
6468;DHT22;3267;48.794;9.928;2023-01-13T06:58:07;12.80;99.90
6468;DHT22;3267;48.794;9.928;2023-01-13T07:00:33;12.80;99.90
6468;DHT22;3267;48.794;9.928;2023-01-13T07:05:32;13.30;99.90
6468;DHT22;3267;48.794;9.928;2023-01-13T07:07:58;13.30;99.90
6468;DHT22;3267;48.794;9.928;2023-01-13T07:10:24;13.80;99.90
6468;DHT22;3267;48.794;9.928;2023-01-13T07:12:49;13.40;99.90
6468;DHT22;3267;48.794;9.928;2023-01-13T07:15:34;13.30;99.90
6468;DHT22;3267;48.794;9.928;2023-01-13T07:18:01;13.40;99.90
6468;DHT22;3267;48.794;9.928;2023-01-13T07:20:28;13.90;99.90
6468;DHT22;3267;48.794;9.928;2023-01-13T07:22:54;13.90;99.90
6468;DHT22;3267;48.794;9.928;2023-01-13T07:25:20;14.20;99.90
6468;DHT22;3267;48.794;9.928;2023-01-13T07:27:46;13.90;99.90
6468;DHT22;3267;48.794;9.928;2023-01-13T07:30:12;14.20;99.90
6468;DHT22;3267;48.794;9.928;2023-01-13T07:32:38;14.20;99.90
6468;DHT22;3267;48.794;9.928;2023-01-13T07:35:05;13.90;99.90
6468;DHT22;3267;48.794;9.928;2023-01-13T07:37:33;14.00;99.90
6468;DHT22;3267;48.794;9.928;2023-01-13T07:39:59;13.70;99.90
6468;DHT22;3267;48.794;9.928;2023-01-13T07:42:25;14.20;99.90
6468;DHT22;3267;48.794;9.928;2023-01-13T07:45:13;14.00;99.90
6468;DHT22;3267;48.794;9.928;2023-01-13T07:47:39;16.20;99.90
6468;DHT22;3267;48.794;9.928;2023-01-13T07:50:06;13.80;99.90
6468;DHT22;3267;48.794;9.928;2023-01-13T07:52:32;13.60;99.90
6468;DHT22;3267;48.794;9.928;2023-01-13T07:54:58;15.70;99.90
6468;DHT22;3267;48.794;9.928;2023-01-13T07:57:23;13.40;99.90
6468;DHT22;3267;48.794;9.928;2023-01-13T07:59:49;13.50;99.90
6468;DHT22;3267;48.794;9.928;2023-01-13T08:02:15;13.80;99.90
6468;DHT22;3267;48.794;9.928;2023-01-13T08:04:41;13.70;99.90
6468;DHT22;3267;48.794;9.928;2023-01-13T08:07:07;16.50;99.90
6468;DHT22;3267;48.794;9.928;2023-01-13T08:09:33;13.50;99.90
6468;DHT22;3267;48.794;9.928;2023-01-13T08:11:59;13.80;99.90
6468;DHT22;3267;48.794;9.928;2023-01-13T08:14:43;13.80;99.90
6468;DHT22;3267;48.794;9.928;2023-01-13T08:17:09;16.80;99.90
6468;DHT22;3267;48.794;9.928;2023-01-13T08:19:35;13.80;99.90
6468;DHT22;3267;48.794;9.928;2023-01-13T08:22:01;13.50;99.90
6468;DHT22;3267;48.794;9.928;2023-01-13T08:24:27;16.10;99.90
6468;DHT22;3267;48.794;9.928;2023-01-13T08:26:53;13.90;99.90
6468;DHT22;3267;48.794;9.928;2023-01-13T08:29:19;14.20;99.90
6468;DHT22;3267;48.794;9.928;2023-01-13T08:31:45;14.20;99.90
6468;DHT22;3267;48.794;9.928;2023-01-13T08:34:11;14.00;99.90
6468;DHT22;3267;48.794;9.928;2023-01-13T08:36:36;15.80;99.90
6468;DHT22;3267;48.794;9.928;2023-01-13T08:39:02;14.30;99.90
6468;DHT22;3267;48.794;9.928;2023-01-13T08:41:28;14.20;99.90
6468;DHT22;3267;48.794;9.928;2023-01-13T08:44:13;14.20;99.90
6468;DHT22;3267;48.794;9.928;2023-01-13T08:46:40;14.40;99.90
6468;DHT22;3267;48.794;9.928;2023-01-13T08:49:06;16.90;99.90
6468;DHT22;3267;48.794;9.928;2023-01-13T08:51:32;14.20;99.90
6468;DHT22;3267;48.794;9.928;2023-01-13T08:53:57;14.30;99.90
6468;DHT22;3267;48.794;9.928;2023-01-13T08:56:23;14.50;99.90
6468;DHT22;3267;48.794;9.928;2023-01-13T08:58:49;14.40;99.90
6468;DHT22;3267;48.794;9.928;2023-01-13T09:01:20;14.10;99.90
6468;DHT22;3267;48.794;9.928;2023-01-13T09:03:46;13.90;99.90
6468;DHT22;3267;48.794;9.928;2023-01-13T09:06:12;13.90;99.90
6468;DHT22;3267;48.794;9.928;2023-01-13T09:08:38;13.70;99.90
6468;DHT22;3267;48.794;9.928;2023-01-13T09:11:04;13.60;99.90
6468;DHT22;3267;48.794;9.928;2023-01-13T09:13:50;13.50;99.90
6468;DHT22;3267;48.794;9.928;2023-01-13T09:16:16;13.50;99.90
6468;DHT22;3267;48.794;9.928;2023-01-13T09:18:42;13.80;99.90
6468;DHT22;3267;48.794;9.928;2023-01-13T09:21:09;13.80;99.90
6468;DHT22;3267;48.794;9.928;2023-01-13T09:23:35;16.80;99.90
6468;DHT22;3267;48.794;9.928;2023-01-13T09:26:01;13.40;99.90
6468;DHT22;3267;48.794;9.928;2023-01-13T09:28:27;16.00;99.90
6468;DHT22;3267;48.794;9.928;2023-01-13T09:30:53;13.30;99.90
6468;DHT22;3267;48.794;9.928;2023-01-13T09:33:22;13.60;99.90
6468;DHT22;3267;48.794;9.928;2023-01-13T09:36:06;13.40;99.90
6468;DHT22;3267;48.794;9.928;2023-01-13T09:38:32;13.50;99.90
6468;DHT22;3267;48.794;9.928;2023-01-13T09:40:58;13.40;99.90
6468;DHT22;3267;48.794;9.928;2023-01-13T09:43:32;13.50;99.90
6468;DHT22;3267;48.794;9.928;2023-01-13T09:46:31;13.50;99.90
6468;DHT22;3267;48.794;9.928;2023-01-13T09:49:38;13.60;99.90
6468;DHT22;3267;48.794;9.928;2023-01-13T09:52:17;13.80;99.90
6468;DHT22;3267;48.794;9.928;2023-01-13T09:54:51;15.40;99.90
6468;DHT22;3267;48.794;9.928;2023-01-13T09:57:19;13.70;99.90
6468;DHT22;3267;48.794;9.928;2023-01-13T09:59:47;13.60;99.90
6468;DHT22;3267;48.794;9.928;2023-01-13T10:02:28;13.40;99.90
6468;DHT22;3267;48.794;9.928;2023-01-13T10:13:29;10.70;99.90
6468;DHT22;3267;48.794;9.928;2023-01-13T11:08:48;10.90;99.90
6468;DHT22;3267;48.794;9.928;2023-01-13T11:19:05;11.40;99.90
6468;DHT22;3267;48.794;9.928;2023-01-13T11:46:00;12.40;99.90
6468;DHT22;3267;48.794;9.928;2023-01-13T11:49:39;10.70;99.90
6468;DHT22;3267;48.794;9.928;2023-01-13T12:20:33;11.00;99.90
6468;DHT22;3267;48.794;9.928;2023-01-13T12:54:00;11.60;99.90
6468;DHT22;3267;48.794;9.928;2023-01-13T13:09:24;12.80;99.90
6468;DHT22;3267;48.794;9.928;2023-01-13T13:19:59;13.30;99.90
6468;DHT22;3267;48.794;9.928;2023-01-13T13:24:10;12.10;99.90
6468;DHT22;3267;48.794;9.928;2023-01-13T13:53:39;11.80;99.90
6468;DHT22;3267;48.794;9.928;2023-01-13T14:05:18;14.60;99.90
6468;DHT22;3267;48.794;9.928;2023-01-13T14:27:42;10.90;99.90
6468;DHT22;3267;48.794;9.928;2023-01-13T14:34:50;12.80;99.90
6468;DHT22;3267;48.794;9.928;2023-01-13T14:53:46;13.30;99.90
6468;DHT22;3267;48.794;9.928;2023-01-13T15:35:24;11.80;99.90
6468;DHT22;3267;48.794;9.928;2023-01-13T15:39:03;10.00;99.90
6468;DHT22;3267;48.794;9.928;2023-01-13T15:41:49;10.60;99.90
6468;DHT22;3267;48.794;9.928;2023-01-13T15:48:45;9.70;99.90
6468;DHT22;3267;48.794;9.928;2023-01-13T16:06:41;13.60;99.90
6468;DHT22;3267;48.794;9.928;2023-01-13T16:09:48;11.20;99.90
6468;DHT22;3267;48.794;9.928;2023-01-13T16:16:58;9.60;99.90
6468;DHT22;3267;48.794;9.928;2023-01-13T16:49:15;10.40;99.90
6468;DHT22;3267;48.794;9.928;2023-01-13T17:15:22;9.50;99.90
6468;DHT22;3267;48.794;9.928;2023-01-13T17:22:21;10.90;99.90
6468;DHT22;3267;48.794;9.928;2023-01-13T17:25:43;12.90;99.90
6468;DHT22;3267;48.794;9.928;2023-01-13T17:32:41;9.30;99.90
6468;DHT22;3267;48.794;9.928;2023-01-13T17:35:08;9.30;99.90
6468;DHT22;3267;48.794;9.928;2023-01-13T17:38:57;11.40;99.90
6468;DHT22;3267;48.794;9.928;2023-01-13T17:42:29;10.70;99.90
6468;DHT22;3267;48.794;9.928;2023-01-13T17:49:29;9.20;99.90
6468;DHT22;3267;48.794;9.928;2023-01-13T17:52:12;9.10;99.90
6468;DHT22;3267;48.794;9.928;2023-01-13T17:59:17;11.00;99.90
6468;DHT22;3267;48.794;9.928;2023-01-13T18:06:30;12.70;99.90
6468;DHT22;3267;48.794;9.928;2023-01-13T18:17:05;8.90;99.90
6468;DHT22;3267;48.794;9.928;2023-01-13T18:19:37;13.20;99.90
6468;DHT22;3267;48.794;9.928;2023-01-13T18:22:25;14.30;99.90
6468;DHT22;3267;48.794;9.928;2023-01-13T18:25:17;11.30;99.90
6468;DHT22;3267;48.794;9.928;2023-01-13T18:28:07;12.80;99.90
6468;DHT22;3267;48.794;9.928;2023-01-13T18:31:00;13.80;99.90
6468;DHT22;3267;48.794;9.928;2023-01-13T18:34:27;12.20;99.90
6468;DHT22;3267;48.794;9.928;2023-01-13T18:36:57;9.90;99.90
6468;DHT22;3267;48.794;9.928;2023-01-13T18:39:23;11.20;99.90
6468;DHT22;3267;48.794;9.928;2023-01-13T18:41:48;11.70;99.90
6468;DHT22;3267;48.794;9.928;2023-01-13T18:44:33;11.50;99.90
6468;DHT22;3267;48.794;9.928;2023-01-13T18:46:59;11.20;99.90
6468;DHT22;3267;48.794;9.928;2023-01-13T18:49:24;11.30;99.90
6468;DHT22;3267;48.794;9.928;2023-01-13T18:51:50;11.30;99.90
6468;DHT22;3267;48.794;9.928;2023-01-13T18:54:16;11.40;99.90
6468;DHT22;3267;48.794;9.928;2023-01-13T18:56:43;11.30;99.90
6468;DHT22;3267;48.794;9.928;2023-01-13T18:59:09;11.10;99.90
6468;DHT22;3267;48.794;9.928;2023-01-13T19:01:41;13.70;99.90
6468;DHT22;3267;48.794;9.928;2023-01-13T19:04:07;11.40;99.90
6468;DHT22;3267;48.794;9.928;2023-01-13T19:06:38;11.60;99.90
6468;DHT22;3267;48.794;9.928;2023-01-13T19:09:04;11.40;99.90
6468;DHT22;3267;48.794;9.928;2023-01-13T19:11:36;11.40;99.90
6468;DHT22;3267;48.794;9.928;2023-01-13T19:14:03;11.60;99.90
6468;DHT22;3267;48.794;9.928;2023-01-13T19:16:29;11.70;99.90
6468;DHT22;3267;48.794;9.928;2023-01-13T19:18:57;11.50;99.90
6468;DHT22;3267;48.794;9.928;2023-01-13T19:21:24;11.70;99.90
6468;DHT22;3267;48.794;9.928;2023-01-13T19:23:54;12.10;99.90
6468;DHT22;3267;48.794;9.928;2023-01-13T19:26:20;12.00;99.90
6468;DHT22;3267;48.794;9.928;2023-01-13T19:28:47;12.10;99.90
6468;DHT22;3267;48.794;9.928;2023-01-13T19:31:13;12.60;99.90
6468;DHT22;3267;48.794;9.928;2023-01-13T19:33:41;12.40;99.90
6468;DHT22;3267;48.794;9.928;2023-01-13T19:36:09;14.50;99.90
6468;DHT22;3267;48.794;9.928;2023-01-13T19:38:36;12.20;99.90
6468;DHT22;3267;48.794;9.928;2023-01-13T19:41:04;13.80;99.90
6468;DHT22;3267;48.794;9.928;2023-01-13T19:43:36;12.10;99.90
6468;DHT22;3267;48.794;9.928;2023-01-13T19:46:21;12.00;99.90
6468;DHT22;3267;48.794;9.928;2023-01-13T19:48:46;11.70;99.90
6468;DHT22;3267;48.794;9.928;2023-01-13T19:51:12;12.70;99.90
6468;DHT22;3267;48.794;9.928;2023-01-13T19:53:40;11.90;99.90
6468;DHT22;3267;48.794;9.928;2023-01-13T19:56:06;12.40;99.90
6468;DHT22;3267;48.794;9.928;2023-01-13T19:58:32;12.20;99.90
6468;DHT22;3267;48.794;9.928;2023-01-13T20:00:58;12.00;99.90
6468;DHT22;3267;48.794;9.928;2023-01-13T20:03:25;12.20;99.90
6468;DHT22;3267;48.794;9.928;2023-01-13T20:06:06;11.80;99.90
6468;DHT22;3267;48.794;9.928;2023-01-13T20:08:35;14.40;99.90
6468;DHT22;3267;48.794;9.928;2023-01-13T20:11:01;11.70;99.90
6468;DHT22;3267;48.794;9.928;2023-01-13T20:13:55;11.70;99.90
6468;DHT22;3267;48.794;9.928;2023-01-13T20:16:20;11.40;99.90
6468;DHT22;3267;48.794;9.928;2023-01-13T20:18:49;11.40;99.90
6468;DHT22;3267;48.794;9.928;2023-01-13T20:21:16;11.00;99.90
6468;DHT22;3267;48.794;9.928;2023-01-13T20:23:42;11.30;99.90
6468;DHT22;3267;48.794;9.928;2023-01-13T20:26:09;11.50;99.90
6468;DHT22;3267;48.794;9.928;2023-01-13T20:28:35;11.40;99.90
6468;DHT22;3267;48.794;9.928;2023-01-13T20:31:07;11.80;99.90
6468;DHT22;3267;48.794;9.928;2023-01-13T20:33:35;11.70;99.90
6468;DHT22;3267;48.794;9.928;2023-01-13T20:36:01;11.70;99.90
6468;DHT22;3267;48.794;9.928;2023-01-13T20:38:27;11.60;99.90
6468;DHT22;3267;48.794;9.928;2023-01-13T20:41:00;11.50;99.90
6468;DHT22;3267;48.794;9.928;2023-01-13T20:43:26;11.40;99.90
6468;DHT22;3267;48.794;9.928;2023-01-13T20:45:52;11.40;99.90
6468;DHT22;3267;48.794;9.928;2023-01-13T20:48:19;11.30;99.90
6468;DHT22;3267;48.794;9.928;2023-01-13T20:50:51;11.00;99.90
6468;DHT22;3267;48.794;9.928;2023-01-13T20:53:18;10.90;99.90
6468;DHT22;3267;48.794;9.928;2023-01-13T20:55:43;10.90;99.90
6468;DHT22;3267;48.794;9.928;2023-01-13T20:58:09;11.20;99.90
6468;DHT22;3267;48.794;9.928;2023-01-13T21:00:35;11.10;99.90
6468;DHT22;3267;48.794;9.928;2023-01-13T21:03:01;11.40;99.90
6468;DHT22;3267;48.794;9.928;2023-01-13T21:05:26;10.80;99.90
6468;DHT22;3267;48.794;9.928;2023-01-13T21:08:09;11.80;99.90
6468;DHT22;3267;48.794;9.928;2023-01-13T21:11:16;12.80;99.90
6468;DHT22;3267;48.794;9.928;2023-01-13T21:14:23;10.30;99.90
6468;DHT22;3267;48.794;9.928;2023-01-13T21:17:39;10.80;99.90
6468;DHT22;3267;48.794;9.928;2023-01-13T21:20:43;14.40;99.90
6468;DHT22;3267;48.794;9.928;2023-01-13T21:23:15;11.00;99.90
6468;DHT22;3267;48.794;9.928;2023-01-13T21:25:43;8.30;99.90
6468;DHT22;3267;48.794;9.928;2023-01-13T21:28:09;10.70;99.90
6468;DHT22;3267;48.794;9.928;2023-01-13T21:31:11;11.90;99.90
6468;DHT22;3267;48.794;9.928;2023-01-13T21:34:26;8.10;99.90
6468;DHT22;3267;48.794;9.928;2023-01-13T21:37:56;12.80;99.90
6468;DHT22;3267;48.794;9.928;2023-01-13T21:52:18;8.60;99.90
6468;DHT22;3267;48.794;9.928;2023-01-13T21:55:33;12.10;99.90
6468;DHT22;3267;48.794;9.928;2023-01-13T22:02:18;6.60;99.90
6468;DHT22;3267;48.794;9.928;2023-01-13T22:08:45;9.90;99.90
6468;DHT22;3267;48.794;9.928;2023-01-13T22:11:40;8.30;99.90
6468;DHT22;3267;48.794;9.928;2023-01-13T22:17:53;12.20;99.90
6468;DHT22;3267;48.794;9.928;2023-01-13T22:21:05;9.00;99.90
6468;DHT22;3267;48.794;9.928;2023-01-13T22:24:10;8.70;99.90
6468;DHT22;3267;48.794;9.928;2023-01-13T22:26:57;8.40;99.90
6468;DHT22;3267;48.794;9.928;2023-01-13T22:29:32;9.10;99.90
